createdAt,value
2023-01-17T00:02:21.082Z,61.60
2023-01-17T00:05:21.898Z,67.20
2023-01-17T00:08:19.902Z,60.60
2023-01-17T00:10:48.461Z,61.00
2023-01-17T00:13:16.947Z,55.10
2023-01-17T00:15:45.487Z,57.60
2023-01-17T00:18:13.902Z,58.00
2023-01-17T00:21:01.682Z,57.40
2023-01-17T00:23:48.957Z,54.30
2023-01-17T00:26:19.716Z,57.90
2023-01-17T00:28:49.060Z,58.20
2023-01-17T00:31:17.844Z,59.40
2023-01-17T00:33:46.465Z,54.70
2023-01-17T00:36:14.804Z,59.90
2023-01-17T00:38:43.313Z,59.10
2023-01-17T00:41:14.095Z,53.30
2023-01-17T00:44:01.129Z,49.60
2023-01-17T00:46:48.312Z,51.20
2023-01-17T00:49:35.631Z,47.80
2023-01-17T00:52:22.522Z,54.00
2023-01-17T00:55:09.601Z,52.40
2023-01-17T00:57:56.936Z,52.10
2023-01-17T01:00:44.208Z,52.50
2023-01-17T01:03:31.779Z,49.40
2023-01-17T01:06:23.018Z,52.10
2023-01-17T01:09:10.610Z,55.90
2023-01-17T01:11:57.754Z,53.50
2023-01-17T01:14:44.544Z,55.20
2023-01-17T01:17:31.667Z,53.10
2023-01-17T01:20:18.949Z,53.70
2023-01-17T01:23:06.092Z,56.70
2023-01-17T01:25:55.188Z,55.00
2023-01-17T01:28:42.130Z,56.60
2023-01-17T01:31:29.496Z,53.80
2023-01-17T01:33:57.994Z,53.50
2023-01-17T01:36:26.445Z,53.90
2023-01-17T01:38:54.844Z,52.80
2023-01-17T01:41:23.379Z,51.60
2023-01-17T01:43:54.431Z,58.70
2023-01-17T01:46:41.595Z,51.20
2023-01-17T01:49:25.011Z,54.20
2023-01-17T01:51:59.169Z,51.40
2023-01-17T01:54:37.751Z,55.10
2023-01-17T01:57:08.776Z,50.20
2023-01-17T01:59:42.753Z,50.00
2023-01-17T02:02:11.335Z,50.90
2023-01-17T02:04:40.107Z,49.30
2023-01-17T02:07:13.934Z,54.80
2023-01-17T02:09:42.871Z,54.10
2023-01-17T02:12:12.425Z,50.30
2023-01-17T02:14:41.567Z,51.90
2023-01-17T02:17:49.894Z,48.90
2023-01-17T02:20:49.706Z,51.50
2023-01-17T02:23:27.326Z,52.40
2023-01-17T02:26:12.618Z,55.60
2023-01-17T02:28:58.230Z,51.30
2023-01-17T02:31:35.960Z,47.90
2023-01-17T02:34:15.038Z,53.00
2023-01-17T02:37:08.734Z,49.50
2023-01-17T02:39:54.397Z,46.90
2023-01-17T02:42:28.219Z,52.00
2023-01-17T02:44:56.602Z,52.20
2023-01-17T02:47:28.937Z,49.90
2023-01-17T02:50:11.149Z,46.50
2023-01-17T02:52:39.488Z,48.00
2023-01-17T02:55:17.110Z,47.60
2023-01-17T02:58:17.130Z,49.20
2023-01-17T03:01:03.782Z,46.80
2023-01-17T03:03:39.466Z,49.50
2023-01-17T03:06:18.725Z,48.60
2023-01-17T03:08:49.913Z,52.90
2023-01-17T03:11:18.368Z,48.90
2023-01-17T03:13:46.782Z,49.80
2023-01-17T03:16:19.851Z,49.60
2023-01-17T03:18:49.552Z,47.20
2023-01-17T03:21:18.228Z,43.60
2023-01-17T03:23:46.590Z,45.00
2023-01-17T03:26:16.460Z,42.60
2023-01-17T03:28:45.066Z,43.20
2023-01-17T03:31:17.759Z,47.00
2023-01-17T03:33:46.436Z,43.20
2023-01-17T03:36:15.041Z,43.60
2023-01-17T03:38:43.589Z,43.80
2023-01-17T03:41:11.960Z,44.50
2023-01-17T03:43:40.387Z,39.50
2023-01-17T03:46:22.660Z,43.20
2023-01-17T03:48:51.888Z,42.30
2023-01-17T03:51:20.809Z,41.90
2023-01-17T03:53:50.309Z,42.80
2023-01-17T03:56:18.889Z,47.00
2023-01-17T03:58:47.477Z,42.50
2023-01-17T04:01:16.036Z,39.40
2023-01-17T04:03:44.622Z,42.50
2023-01-17T04:06:13.021Z,40.60
2023-01-17T04:08:43.503Z,40.00
2023-01-17T04:11:11.994Z,39.80
2023-01-17T04:13:40.516Z,47.40
2023-01-17T04:16:14.270Z,43.40
2023-01-17T04:18:42.845Z,38.40
2023-01-17T04:21:11.356Z,38.30
2023-01-17T04:23:39.864Z,38.00
2023-01-17T04:26:09.735Z,38.30
2023-01-17T04:28:38.325Z,37.90
2023-01-17T04:31:06.841Z,36.00
2023-01-17T04:33:35.191Z,37.60
2023-01-17T04:36:04.398Z,41.70
2023-01-17T04:38:32.845Z,41.60
2023-01-17T04:41:01.529Z,39.90
2023-01-17T04:43:30.031Z,42.40
2023-01-17T04:46:00.206Z,40.10
2023-01-17T04:48:28.615Z,39.50
2023-01-17T04:51:01.119Z,41.00
2023-01-17T04:53:29.779Z,38.90
2023-01-17T04:55:59.148Z,44.00
2023-01-17T04:58:27.904Z,45.70
2023-01-17T05:00:56.385Z,40.40
2023-01-17T05:03:25.470Z,38.30
2023-01-17T05:05:53.935Z,37.50
2023-01-17T05:08:22.455Z,36.90
2023-01-17T05:10:50.957Z,33.50
2023-01-17T05:13:20.235Z,34.00
2023-01-17T05:15:49.356Z,31.90
2023-01-17T05:18:19.231Z,31.70
2023-01-17T05:20:47.658Z,34.10
2023-01-17T05:23:16.120Z,31.10
2023-01-17T05:25:45.625Z,29.00
2023-01-17T05:28:15.193Z,29.80
2023-01-17T05:30:43.691Z,27.00
2023-01-17T05:33:12.247Z,28.70
2023-01-17T05:35:40.843Z,26.80
2023-01-17T05:38:09.299Z,25.20
2023-01-17T05:40:37.797Z,24.10
2023-01-17T05:43:06.410Z,25.80
2023-01-17T05:45:35.202Z,29.80
2023-01-17T05:48:03.909Z,25.60
2023-01-17T05:50:35.670Z,26.10
2023-01-17T05:53:18.571Z,26.70
2023-01-17T05:55:48.004Z,22.90
2023-01-17T05:58:18.998Z,25.90
2023-01-17T06:00:48.873Z,26.20
2023-01-17T06:03:17.737Z,27.70
2023-01-17T06:05:47.221Z,25.90
2023-01-17T06:08:16.187Z,27.00
2023-01-17T06:10:44.665Z,25.40
2023-01-17T06:13:15.618Z,30.90
2023-01-17T06:15:44.970Z,29.40
2023-01-17T06:18:15.988Z,24.80
2023-01-17T06:20:45.222Z,26.80
2023-01-17T06:23:15.298Z,31.00
2023-01-17T06:25:45.929Z,30.80
2023-01-17T06:28:20.801Z,28.70
2023-01-17T06:30:49.956Z,26.90
2023-01-17T06:33:18.419Z,29.90
2023-01-17T06:35:51.566Z,31.40
2023-01-17T06:38:20.900Z,33.70
2023-01-17T06:40:50.276Z,33.60
2023-01-17T06:43:18.699Z,31.60
2023-01-17T06:45:49.355Z,31.80
2023-01-17T06:48:20.630Z,33.30
2023-01-17T06:50:50.121Z,33.60
2023-01-17T06:53:19.850Z,31.90
2023-01-17T06:55:48.376Z,32.40
2023-01-17T06:58:16.799Z,33.80
2023-01-17T07:00:46.052Z,33.30
2023-01-17T07:03:23.836Z,31.00
2023-01-17T07:05:53.367Z,32.00
2023-01-17T07:08:22.010Z,26.90
2023-01-17T07:10:51.276Z,30.90
2023-01-17T07:13:20.479Z,25.60
2023-01-17T07:15:48.925Z,29.80
2023-01-17T07:18:20.920Z,28.40
2023-01-17T07:20:50.756Z,26.20
2023-01-17T07:23:20.711Z,28.10
2023-01-17T07:25:53.267Z,26.90
2023-01-17T07:28:22.429Z,25.80
2023-01-17T07:30:54.731Z,26.00
2023-01-17T07:33:23.504Z,26.50
2023-01-17T07:35:52.093Z,29.50
2023-01-17T07:38:21.379Z,28.90
2023-01-17T07:40:49.865Z,30.00
2023-01-17T07:43:18.277Z,30.00
2023-01-17T07:45:51.837Z,36.40
2023-01-17T07:48:25.128Z,38.60
2023-01-17T07:51:01.204Z,32.70
2023-01-17T07:53:32.743Z,32.40
2023-01-17T07:56:05.743Z,31.30
2023-01-17T07:58:35.134Z,33.70
2023-01-17T08:01:09.657Z,32.20
2023-01-17T08:03:42.358Z,32.20
2023-01-17T08:06:20.596Z,31.70
2023-01-17T08:08:49.339Z,29.00
2023-01-17T08:11:17.788Z,32.30
2023-01-17T08:13:46.460Z,28.40
2023-01-17T08:16:15.657Z,30.30
2023-01-17T08:18:43.998Z,29.20
2023-01-17T08:21:17.014Z,30.80
2023-01-17T08:23:49.478Z,31.90
2023-01-17T08:26:23.374Z,26.60
2023-01-17T08:28:57.141Z,27.80
2023-01-17T08:31:26.377Z,30.20
2023-01-17T08:33:57.405Z,29.70
2023-01-17T08:36:27.741Z,29.80
2023-01-17T08:38:56.804Z,31.50
2023-01-17T08:41:28.012Z,29.30
2023-01-17T08:43:56.517Z,29.60
2023-01-17T08:46:25.015Z,30.20
2023-01-17T08:48:56.085Z,32.80
2023-01-17T08:51:26.767Z,32.90
2023-01-17T08:53:56.734Z,34.20
2023-01-17T08:56:26.275Z,33.90
2023-01-17T08:58:56.884Z,48.40
2023-01-17T09:01:25.313Z,44.60
2023-01-17T09:03:53.907Z,44.10
2023-01-17T09:06:22.374Z,41.60
2023-01-17T09:08:54.983Z,36.60
2023-01-17T09:11:23.532Z,32.40
2023-01-17T09:13:51.994Z,39.50
2023-01-17T09:16:20.429Z,36.30
2023-01-17T09:18:48.838Z,36.10
2023-01-17T09:21:17.935Z,29.90
2023-01-17T09:23:47.158Z,28.50
2023-01-17T09:26:28.102Z,27.20
2023-01-17T09:28:59.465Z,45.70
2023-01-17T09:31:29.844Z,45.60
2023-01-17T09:33:58.952Z,44.60
2023-01-17T09:36:36.403Z,42.70
2023-01-17T09:39:05.278Z,37.30
2023-01-17T09:41:37.431Z,41.30
2023-01-17T09:44:26.370Z,37.70
2023-01-17T09:46:59.760Z,36.80
2023-01-17T09:49:40.246Z,35.50
2023-01-17T09:52:16.540Z,41.80
2023-01-17T09:54:47.496Z,36.90
2023-01-17T09:57:44.833Z,40.80
2023-01-17T10:00:32.474Z,32.50
2023-01-17T10:03:03.960Z,35.40
2023-01-17T10:05:38.622Z,36.20
2023-01-17T10:08:14.463Z,35.60
2023-01-17T10:10:52.224Z,32.90
2023-01-17T10:13:41.276Z,38.50
2023-01-17T10:16:38.013Z,37.00
2023-01-17T10:19:37.240Z,41.30
2023-01-17T10:22:24.367Z,37.20
2023-01-17T10:25:33.536Z,34.90
2023-01-17T10:28:20.450Z,38.10
2023-01-17T10:31:08.909Z,36.30
2023-01-17T10:33:44.739Z,38.60
2023-01-17T10:36:22.785Z,35.40
2023-01-17T10:38:55.491Z,32.60
2023-01-17T10:41:33.700Z,30.50
2023-01-17T10:44:26.971Z,32.30
2023-01-17T10:47:05.250Z,35.40
2023-01-17T10:49:37.363Z,31.20
2023-01-17T10:52:31.407Z,30.90
2023-01-17T10:55:13.418Z,27.30
2023-01-17T10:57:47.855Z,26.00
2023-01-17T11:00:18.201Z,26.60
2023-01-17T11:02:50.800Z,24.40
2023-01-17T11:05:37.871Z,24.10
2023-01-17T11:08:09.220Z,22.90
2023-01-17T11:10:44.754Z,23.40
2023-01-17T11:13:36.260Z,19.20
2023-01-17T11:16:11.393Z,19.50
2023-01-17T11:18:46.123Z,20.80
2023-01-17T11:21:21.351Z,19.40
2023-01-17T11:23:52.703Z,23.90
2023-01-17T11:26:25.734Z,17.00
2023-01-17T11:29:15.998Z,16.10
2023-01-17T11:31:46.400Z,18.80
2023-01-17T11:34:23.998Z,21.10
2023-01-17T11:37:19.055Z,14.30
2023-01-17T11:39:48.416Z,11.30
2023-01-17T11:42:35.133Z,16.60
2023-01-17T11:45:29.133Z,15.60
2023-01-17T11:48:18.130Z,12.60
2023-01-17T11:51:01.113Z,14.20
2023-01-17T11:53:33.640Z,21.30
2023-01-17T11:56:08.856Z,13.90
2023-01-17T11:58:41.837Z,22.40
2023-01-17T12:01:28.641Z,12.80
2023-01-17T12:04:03.910Z,11.80
2023-01-17T12:06:51.547Z,15.80
2023-01-17T12:09:28.120Z,14.40
2023-01-17T12:13:04.536Z,15.20
2023-01-17T12:16:02.239Z,19.00
2023-01-17T12:18:43.059Z,16.90
2023-01-17T12:22:00.511Z,15.00
2023-01-17T12:24:51.942Z,14.90
2023-01-17T12:27:55.841Z,15.00
2023-01-17T12:30:33.219Z,15.30
2023-01-17T12:33:14.055Z,14.90
2023-01-17T12:35:49.938Z,15.30
2023-01-17T12:38:32.522Z,14.70
2023-01-17T12:41:24.491Z,17.60
2023-01-17T12:43:57.372Z,15.70
2023-01-17T12:46:38.703Z,18.30
2023-01-17T12:49:39.217Z,20.30
2023-01-17T12:52:44.551Z,19.20
2023-01-17T12:55:23.469Z,25.90
2023-01-17T12:58:00.430Z,16.80
2023-01-17T13:00:31.584Z,18.10
2023-01-17T13:03:27.517Z,22.40
2023-01-17T13:05:58.117Z,19.30
2023-01-17T13:08:47.206Z,27.80
2023-01-17T13:11:33.781Z,28.40
2023-01-17T13:14:02.678Z,25.70
2023-01-17T13:16:48.922Z,18.40
2023-01-17T13:19:48.870Z,14.40
2023-01-17T13:22:21.799Z,30.60
2023-01-17T13:25:15.354Z,25.70
2023-01-17T13:28:03.190Z,22.30
2023-01-17T13:31:05.751Z,17.00
2023-01-17T13:34:03.019Z,21.10
2023-01-17T13:36:46.735Z,20.60
2023-01-17T13:39:55.057Z,17.30
2023-01-17T13:42:49.785Z,26.80
2023-01-17T13:45:21.759Z,30.30
2023-01-17T13:47:50.327Z,27.50
2023-01-17T13:50:37.546Z,19.40
2023-01-17T13:53:34.068Z,20.80
2023-01-17T13:56:32.350Z,26.50
2023-01-17T13:59:03.602Z,32.70
2023-01-17T14:01:38.752Z,22.50
2023-01-17T14:04:13.489Z,22.30
2023-01-17T14:06:56.918Z,23.20
2023-01-17T14:09:40.767Z,34.70
2023-01-17T14:12:09.185Z,18.80
2023-01-17T14:14:40.443Z,20.20
2023-01-17T14:17:37.046Z,22.80
2023-01-17T14:20:05.419Z,32.80
2023-01-17T14:22:38.995Z,21.30
2023-01-17T14:25:15.444Z,17.40
2023-01-17T14:27:48.316Z,21.70
2023-01-17T14:30:17.066Z,22.50
2023-01-17T14:33:01.532Z,21.30
2023-01-17T14:35:36.528Z,24.60
2023-01-17T14:38:18.937Z,27.40
2023-01-17T14:41:01.367Z,23.20
2023-01-17T14:43:33.360Z,21.80
2023-01-17T14:46:05.412Z,23.30
2023-01-17T14:48:40.019Z,31.30
2023-01-17T14:51:37.555Z,25.00
2023-01-17T14:54:21.382Z,23.80
2023-01-17T14:56:52.147Z,23.60
2023-01-17T14:59:22.295Z,24.10
2023-01-17T15:02:07.119Z,22.50
2023-01-17T15:04:40.035Z,20.50
2023-01-17T15:07:20.581Z,29.30
2023-01-17T15:09:49.128Z,24.10
2023-01-17T15:12:17.650Z,23.00
2023-01-17T15:14:47.433Z,23.70
2023-01-17T15:17:24.679Z,22.00
2023-01-17T15:20:01.899Z,21.70
2023-01-17T15:22:33.457Z,23.70
2023-01-17T15:25:02.883Z,18.80
2023-01-17T15:27:32.443Z,26.00
2023-01-17T15:30:04.190Z,24.20
2023-01-17T15:32:33.121Z,35.50
2023-01-17T15:35:03.135Z,31.50
2023-01-17T15:37:35.041Z,29.80
2023-01-17T15:40:24.725Z,28.90
2023-01-17T15:43:02.522Z,30.00
2023-01-17T15:45:33.225Z,31.30
2023-01-17T15:48:26.725Z,32.80
2023-01-17T15:50:59.075Z,30.20
2023-01-17T15:53:36.935Z,28.90
2023-01-17T15:56:20.297Z,28.60
2023-01-17T15:58:50.418Z,31.10
2023-01-17T16:01:25.988Z,27.10
2023-01-17T16:03:55.781Z,30.60
2023-01-17T16:06:49.549Z,35.30
2023-01-17T16:09:24.571Z,28.20
2023-01-17T16:11:53.805Z,35.40
2023-01-17T16:14:22.358Z,28.60
2023-01-17T16:16:53.174Z,30.30
2023-01-17T16:19:21.648Z,29.00
2023-01-17T16:21:50.462Z,26.20
2023-01-17T16:24:19.436Z,27.10
2023-01-17T16:26:47.910Z,27.90
2023-01-17T16:29:16.419Z,31.20
2023-01-17T16:31:44.803Z,30.00
2023-01-17T16:34:13.391Z,33.70
2023-01-17T16:36:42.004Z,35.50
2023-01-17T16:39:15.587Z,32.80
2023-01-17T16:41:44.033Z,37.60
2023-01-17T16:44:12.471Z,30.00
2023-01-17T16:46:41.007Z,35.50
2023-01-17T16:49:09.433Z,36.30
2023-01-17T16:51:38.663Z,41.30
2023-01-17T16:54:07.124Z,44.70
2023-01-17T16:56:36.313Z,47.10
2023-01-17T16:59:05.870Z,39.20
2023-01-17T17:01:34.479Z,46.70
2023-01-17T17:04:03.490Z,44.40
2023-01-17T17:06:32.854Z,45.40
2023-01-17T17:09:01.359Z,42.40
2023-01-17T17:11:29.930Z,34.60
2023-01-17T17:13:58.289Z,38.00
2023-01-17T17:16:31.482Z,36.00
2023-01-17T17:19:06.298Z,36.20
2023-01-17T17:21:37.696Z,33.50
2023-01-17T17:24:06.514Z,34.50
2023-01-17T17:26:37.360Z,34.70
2023-01-17T17:29:10.579Z,38.10
2023-01-17T17:31:41.455Z,42.20
2023-01-17T17:34:14.832Z,33.30
2023-01-17T17:36:43.622Z,38.00
2023-01-17T17:39:15.087Z,45.40
2023-01-17T17:41:45.993Z,48.30
2023-01-17T17:44:14.591Z,50.30
2023-01-17T17:46:43.181Z,45.70
2023-01-17T17:49:11.625Z,48.40
2023-01-17T17:51:40.640Z,47.40
2023-01-17T17:54:13.879Z,44.50
2023-01-17T17:56:46.651Z,47.70
2023-01-17T17:59:20.387Z,44.00
2023-01-17T18:01:49.303Z,49.20
2023-01-17T18:04:18.658Z,43.50
2023-01-17T18:06:47.122Z,47.20
2023-01-17T18:09:15.586Z,45.20
2023-01-17T18:11:44.394Z,44.50
2023-01-17T18:14:14.742Z,41.90
2023-01-17T18:16:45.065Z,44.60
2023-01-17T18:19:23.748Z,44.30
2023-01-17T18:21:54.181Z,48.00
2023-01-17T18:24:24.740Z,44.10
2023-01-17T18:26:57.087Z,47.00
2023-01-17T18:29:27.450Z,43.40
2023-01-17T18:31:56.377Z,40.40
2023-01-17T18:34:29.488Z,43.50
2023-01-17T18:36:58.700Z,40.30
2023-01-17T18:39:29.815Z,41.30
2023-01-17T18:41:58.685Z,43.90
2023-01-17T18:44:27.848Z,49.30
2023-01-17T18:47:02.174Z,46.70
2023-01-17T18:49:32.804Z,44.60
2023-01-17T18:52:01.479Z,50.60
2023-01-17T18:54:30.122Z,52.00
2023-01-17T18:56:58.536Z,51.00
2023-01-17T18:59:26.984Z,48.40
2023-01-17T19:01:56.139Z,50.40
2023-01-17T19:04:24.605Z,54.10
2023-01-17T19:06:55.796Z,47.10
2023-01-17T19:09:24.464Z,47.50
2023-01-17T19:11:52.903Z,51.50
2023-01-17T19:14:21.384Z,53.60
2023-01-17T19:16:50.011Z,50.00
2023-01-17T19:19:18.386Z,52.10
2023-01-17T19:21:46.797Z,51.90
2023-01-17T19:24:15.434Z,46.30
2023-01-17T19:26:44.244Z,48.70
2023-01-17T19:29:12.778Z,52.10
2023-01-17T19:31:43.448Z,56.60
2023-01-17T19:34:16.200Z,57.40
2023-01-17T19:36:44.742Z,56.90
2023-01-17T19:39:13.388Z,52.10
2023-01-17T19:41:44.222Z,53.90
2023-01-17T19:44:14.714Z,50.50
2023-01-17T19:46:44.737Z,51.30
2023-01-17T19:49:13.253Z,51.30
2023-01-17T19:51:41.797Z,45.50
2023-01-17T19:54:10.814Z,40.60
2023-01-17T19:56:39.416Z,40.70
2023-01-17T19:59:07.969Z,44.00
2023-01-17T20:01:36.595Z,40.90
2023-01-17T20:04:05.269Z,45.50
2023-01-17T20:06:41.053Z,44.50
2023-01-17T20:09:11.033Z,44.90
2023-01-17T20:11:42.580Z,45.00
2023-01-17T20:14:14.979Z,46.00
2023-01-17T20:16:48.861Z,46.50
2023-01-17T20:19:17.348Z,45.30
2023-01-17T20:21:46.352Z,46.30
2023-01-17T20:24:16.654Z,44.00
2023-01-17T20:26:45.292Z,50.20
2023-01-17T20:29:15.683Z,44.20
2023-01-17T20:31:45.424Z,49.00
2023-01-17T20:34:16.410Z,46.50
2023-01-17T20:36:45.368Z,44.80
2023-01-17T20:39:15.156Z,41.80
2023-01-17T20:41:46.373Z,42.50
2023-01-17T20:44:15.970Z,45.90
2023-01-17T20:46:44.656Z,41.20
2023-01-17T20:49:16.304Z,45.60
2023-01-17T20:51:46.301Z,39.80
2023-01-17T20:54:18.132Z,47.60
2023-01-17T20:56:47.908Z,43.50
2023-01-17T20:59:19.853Z,45.30
2023-01-17T21:01:49.609Z,45.90
2023-01-17T21:04:25.035Z,42.20
2023-01-17T21:06:53.686Z,44.30
2023-01-17T21:09:22.276Z,43.00
2023-01-17T21:11:51.979Z,44.90
2023-01-17T21:14:21.959Z,39.60
2023-01-17T21:16:50.579Z,41.80
2023-01-17T21:19:20.646Z,44.30
2023-01-17T21:21:50.445Z,44.70
2023-01-17T21:24:19.773Z,42.30
2023-01-17T21:26:51.588Z,41.70
2023-01-17T21:29:20.575Z,42.00
2023-01-17T21:31:49.053Z,38.70
2023-01-17T21:34:17.508Z,38.20
2023-01-17T21:36:46.044Z,43.40
2023-01-17T21:39:19.297Z,42.20
2023-01-17T21:41:50.888Z,41.10
2023-01-17T21:44:23.387Z,41.90
2023-01-17T21:46:55.106Z,42.40
2023-01-17T21:49:24.852Z,43.60
2023-01-17T21:51:53.490Z,40.40
2023-01-17T21:54:46.272Z,42.70
2023-01-17T21:57:36.923Z,44.50
2023-01-17T22:00:08.079Z,45.80
2023-01-17T22:02:47.640Z,47.40
2023-01-17T22:05:17.066Z,45.90
2023-01-17T22:08:15.033Z,45.40
2023-01-17T22:10:46.225Z,44.40
2023-01-17T22:13:17.311Z,45.10
2023-01-17T22:15:46.305Z,49.90
2023-01-17T22:18:15.486Z,50.40
2023-01-17T22:20:43.936Z,47.70
2023-01-17T22:23:12.467Z,49.60
2023-01-17T22:25:41.015Z,47.90
2023-01-17T22:28:09.712Z,46.50
2023-01-17T22:30:38.409Z,46.20
2023-01-17T22:33:06.884Z,44.10
2023-01-17T22:35:35.397Z,45.70
2023-01-17T22:38:03.886Z,42.10
2023-01-17T22:40:33.015Z,42.70
2023-01-17T22:43:01.376Z,47.20
2023-01-17T22:45:29.869Z,45.00
2023-01-17T22:47:58.428Z,43.00
2023-01-17T22:50:26.899Z,45.40
2023-01-17T22:52:55.871Z,45.00
2023-01-17T22:55:24.983Z,49.40
2023-01-17T22:57:53.511Z,45.10
2023-01-17T23:00:22.125Z,48.40
2023-01-17T23:02:50.639Z,45.40
2023-01-17T23:05:19.199Z,46.60
2023-01-17T23:07:50.688Z,44.20
2023-01-17T23:10:39.230Z,44.20
2023-01-17T23:13:10.747Z,39.10
2023-01-17T23:15:58.133Z,41.20
2023-01-17T23:18:46.244Z,38.70
2023-01-17T23:21:14.654Z,37.50
2023-01-17T23:23:43.059Z,33.50
2023-01-17T23:26:11.481Z,34.80
2023-01-17T23:28:39.904Z,35.60
2023-01-17T23:31:10.658Z,38.30
2023-01-17T23:33:39.063Z,41.10
2023-01-17T23:36:09.452Z,33.60
2023-01-17T23:38:40.805Z,36.70
2023-01-17T23:41:28.259Z,33.50
2023-01-17T23:43:59.167Z,30.50
2023-01-17T23:46:30.391Z,33.30
2023-01-17T23:48:58.907Z,32.10
2023-01-17T23:51:27.285Z,33.60
2023-01-17T23:54:05.591Z,32.00
2023-01-17T23:56:34.084Z,31.90
2023-01-17T23:59:04.597Z,26.80
